createdAt,value
2023-04-11T00:01:11.074Z,3.55
2023-04-11T00:03:40.087Z,3.38
2023-04-11T00:06:09.745Z,3.50
2023-04-11T00:11:06.151Z,4.25
2023-04-11T00:13:34.352Z,4.47
2023-04-11T00:16:03.862Z,6.40
2023-04-11T00:18:31.668Z,3.72
2023-04-11T00:20:59.849Z,4.53
2023-04-11T00:23:29.104Z,3.47
2023-04-11T00:25:57.715Z,2.95
2023-04-11T00:28:25.591Z,3.63
2023-04-11T00:30:53.318Z,2.97
2023-04-11T00:33:22.004Z,2.78
2023-04-11T00:35:49.828Z,3.05
2023-04-11T00:38:18.059Z,3.38
2023-04-11T00:40:47.642Z,2.25
2023-04-11T00:43:15.466Z,2.15
2023-04-11T00:45:43.518Z,2.72
2023-04-11T00:48:12.227Z,3.85
2023-04-11T00:50:41.678Z,2.30
2023-04-11T00:53:10.570Z,2.35
2023-04-11T00:55:38.292Z,3.15
2023-04-11T00:58:08.356Z,3.38
2023-04-11T01:00:39.160Z,2.15
2023-04-11T01:03:06.935Z,2.22
2023-04-11T01:05:35.802Z,1.98
2023-04-11T01:08:04.121Z,2.53
2023-04-11T01:10:33.036Z,1.58
2023-04-11T01:13:01.854Z,1.58
2023-04-11T01:15:32.075Z,3.90
2023-04-11T01:18:02.049Z,3.75
2023-04-11T01:20:35.160Z,3.30
2023-04-11T01:23:03.138Z,1.30
2023-04-11T01:25:32.215Z,2.42
2023-04-11T01:28:00.967Z,2.95
2023-04-11T01:30:28.998Z,3.88
2023-04-11T01:32:57.393Z,1.75
2023-04-11T01:35:25.733Z,1.15
2023-04-11T01:37:53.673Z,1.48
2023-04-11T01:40:24.274Z,2.95
2023-04-11T01:42:54.098Z,1.63
2023-04-11T01:45:23.252Z,1.48
2023-04-11T01:47:52.495Z,1.70
2023-04-11T01:50:20.589Z,1.58
2023-04-11T01:52:49.010Z,3.25
2023-04-11T01:55:18.283Z,2.65
2023-04-11T01:57:46.030Z,2.95
2023-04-11T02:00:16.432Z,1.65
2023-04-11T02:02:46.982Z,4.35
2023-04-11T02:05:14.862Z,3.70
2023-04-11T02:07:42.563Z,1.90
2023-04-11T02:10:18.747Z,4.40
2023-04-11T02:12:46.547Z,3.25
2023-04-11T02:15:14.258Z,2.42
2023-04-11T02:18:04.329Z,4.13
2023-04-11T02:20:32.200Z,3.63
2023-04-11T02:23:03.397Z,1.92
2023-04-11T02:25:32.170Z,3.03
2023-04-11T02:28:00.463Z,2.80
2023-04-11T02:30:28.627Z,5.35
2023-04-11T02:32:57.475Z,3.03
2023-04-11T02:35:26.609Z,4.28
2023-04-11T02:37:55.202Z,4.95
2023-04-11T02:40:24.264Z,5.60
2023-04-11T02:42:53.204Z,5.55
2023-04-11T02:45:21.038Z,3.40
2023-04-11T02:47:50.518Z,4.20
2023-04-11T02:50:19.294Z,5.28
2023-04-11T02:52:52.744Z,5.22
2023-04-11T02:55:25.448Z,3.80
2023-04-11T02:57:53.998Z,7.17
2023-04-11T03:00:23.048Z,5.30
2023-04-11T03:02:59.586Z,4.70
2023-04-11T03:05:29.029Z,5.43
2023-04-11T03:07:58.971Z,6.22
2023-04-11T03:10:30.112Z,6.18
2023-04-11T03:12:59.464Z,6.72
2023-04-11T03:15:28.037Z,4.90
2023-04-11T03:17:56.703Z,6.28
2023-04-11T03:20:24.690Z,6.82
2023-04-11T03:22:54.892Z,6.35
2023-04-11T03:25:25.158Z,8.73
2023-04-11T03:27:54.610Z,8.07
2023-04-11T03:30:22.588Z,7.07
2023-04-11T03:32:50.945Z,6.70
2023-04-11T03:35:20.924Z,5.50
2023-04-11T03:37:51.577Z,7.00
2023-04-11T03:40:19.544Z,12.50
2023-04-11T03:42:55.456Z,6.65
2023-04-11T03:45:27.970Z,9.75
2023-04-11T03:47:59.384Z,9.90
2023-04-11T03:50:34.701Z,9.35
2023-04-11T03:53:04.523Z,12.27
2023-04-11T03:55:32.678Z,10.13
2023-04-11T03:58:05.396Z,8.95
2023-04-11T04:00:34.038Z,9.95
2023-04-11T04:03:08.588Z,11.20
2023-04-11T04:05:39.026Z,12.27
2023-04-11T04:08:07.104Z,12.10
2023-04-11T04:10:48.364Z,14.45
2023-04-11T04:13:18.569Z,13.23
2023-04-11T04:15:58.656Z,10.90
2023-04-11T04:18:28.617Z,14.13
2023-04-11T04:20:56.291Z,14.90
2023-04-11T04:23:27.284Z,13.07
2023-04-11T04:26:18.340Z,14.00
2023-04-11T04:29:04.888Z,15.05
2023-04-11T04:31:50.658Z,22.00
2023-04-11T04:34:25.157Z,14.98
2023-04-11T04:36:56.491Z,14.30
2023-04-11T04:39:35.362Z,18.42
2023-04-11T04:42:04.247Z,12.65
2023-04-11T04:44:40.112Z,21.15
2023-04-11T04:47:17.208Z,16.40
2023-04-11T04:49:45.187Z,15.67
2023-04-11T04:52:13.156Z,19.00
2023-04-11T04:54:43.771Z,16.27
2023-04-11T04:57:11.502Z,16.17
2023-04-11T04:59:41.551Z,18.50
2023-04-11T05:02:14.555Z,14.65
2023-04-11T05:04:44.829Z,15.45
2023-04-11T05:07:15.368Z,12.45
2023-04-11T05:09:45.415Z,14.18
2023-04-11T05:12:22.308Z,13.95
2023-04-11T05:14:52.918Z,11.95
2023-04-11T05:17:22.788Z,15.48
2023-04-11T05:19:53.508Z,12.75
2023-04-11T05:22:21.349Z,14.90
2023-04-11T05:24:54.531Z,10.95
2023-04-11T05:27:22.270Z,11.73
2023-04-11T05:29:50.682Z,15.60
2023-04-11T05:32:21.347Z,17.95
2023-04-11T05:34:52.941Z,12.52
2023-04-11T05:37:27.887Z,12.52
2023-04-11T05:39:56.351Z,15.40
2023-04-11T05:42:24.120Z,12.90
2023-04-11T05:44:53.131Z,13.23
2023-04-11T05:47:22.224Z,12.23
2023-04-11T05:49:50.850Z,2.90
2023-04-11T05:52:19.004Z,5.53
2023-04-11T05:54:46.758Z,4.72
2023-04-11T05:57:14.472Z,4.72
2023-04-11T05:59:43.089Z,4.72
2023-04-11T06:02:11.054Z,4.78
2023-04-11T06:04:41.734Z,6.75
2023-04-11T06:07:09.637Z,5.10
2023-04-11T06:09:37.354Z,4.13
2023-04-11T06:12:06.469Z,4.68
2023-04-11T06:14:34.177Z,7.15
2023-04-11T06:17:03.122Z,7.65
2023-04-11T06:19:31.384Z,5.65
2023-04-11T06:22:00.454Z,7.07
2023-04-11T06:24:38.202Z,6.47
2023-04-11T06:27:06.225Z,5.45
2023-04-11T06:29:33.906Z,4.25
2023-04-11T06:32:02.312Z,3.13
2023-04-11T06:34:30.303Z,4.82
2023-04-11T06:37:20.927Z,5.78
2023-04-11T06:39:49.104Z,3.33
2023-04-11T06:42:17.033Z,3.97
2023-04-11T06:44:46.879Z,4.82
2023-04-11T06:47:14.995Z,2.93
2023-04-11T06:49:43.527Z,1.77
2023-04-11T06:52:11.671Z,3.30
2023-04-11T06:54:40.839Z,2.55
2023-04-11T06:57:10.964Z,6.55
2023-04-11T06:59:38.871Z,4.90
2023-04-11T07:02:06.613Z,3.70
2023-04-11T07:04:35.591Z,7.78
2023-04-11T07:07:03.612Z,4.10
2023-04-11T07:09:31.821Z,2.40
2023-04-11T07:12:01.756Z,4.15
2023-04-11T07:16:57.063Z,3.78
2023-04-11T07:19:25.683Z,5.30
2023-04-11T07:21:53.453Z,6.30
2023-04-11T07:24:22.490Z,4.53
2023-04-11T07:26:51.027Z,4.95
2023-04-11T07:29:20.203Z,5.50
2023-04-11T07:31:50.025Z,4.65
2023-04-11T07:34:17.857Z,3.42
2023-04-11T07:36:46.072Z,3.42
2023-04-11T07:39:15.359Z,5.75
2023-04-11T07:41:43.116Z,6.32
2023-04-11T07:44:10.784Z,4.43
2023-04-11T07:46:41.820Z,6.80
2023-04-11T07:49:11.499Z,4.72
2023-04-11T07:51:45.761Z,6.50
2023-04-11T07:54:14.425Z,5.70
2023-04-11T07:56:42.137Z,6.70
2023-04-11T07:59:13.162Z,9.23
2023-04-11T08:01:43.247Z,7.70
2023-04-11T08:04:11.206Z,10.55
2023-04-11T08:06:40.036Z,5.20
2023-04-11T08:09:07.834Z,11.13
2023-04-11T08:11:35.524Z,5.70
2023-04-11T08:14:04.124Z,4.20
2023-04-11T08:16:31.899Z,6.80
2023-04-11T08:19:01.461Z,13.50
2023-04-11T08:21:29.586Z,10.57
2023-04-11T08:23:58.556Z,8.07
2023-04-11T08:26:26.635Z,10.07
2023-04-11T08:28:55.424Z,10.65
2023-04-11T08:31:23.286Z,8.63
2023-04-11T08:33:52.054Z,10.85
2023-04-11T08:36:21.153Z,9.95
2023-04-11T08:38:49.387Z,7.05
2023-04-11T08:41:17.583Z,16.10
2023-04-11T08:43:47.994Z,9.52
2023-04-11T08:46:16.625Z,10.40
2023-04-11T08:48:45.600Z,8.30
2023-04-11T08:51:14.738Z,14.15
2023-04-11T08:53:44.919Z,10.23
2023-04-11T08:56:16.578Z,3.60
2023-04-11T08:58:44.394Z,3.95
2023-04-11T09:01:32.801Z,4.78
2023-04-11T09:04:01.447Z,3.22
2023-04-11T09:06:31.264Z,9.52
2023-04-11T09:09:00.961Z,4.80
2023-04-11T09:11:29.204Z,7.57
2023-04-11T09:14:06.946Z,5.35
2023-04-11T09:16:35.999Z,7.35
2023-04-11T09:19:03.959Z,7.90
2023-04-11T09:21:32.500Z,2.85
2023-04-11T09:27:07.728Z,5.55
2023-04-11T09:29:40.275Z,4.80
2023-04-11T09:32:31.578Z,10.98
2023-04-11T09:35:15.653Z,4.10
2023-04-11T09:37:48.998Z,5.40
2023-04-11T09:40:19.801Z,3.90
2023-04-11T09:42:55.362Z,4.05
2023-04-11T09:45:25.149Z,4.85
2023-04-11T09:47:56.145Z,4.88
2023-04-11T09:50:25.348Z,3.40
2023-04-11T09:52:53.885Z,4.60
2023-04-11T09:55:24.404Z,4.78
2023-04-11T09:57:55.090Z,4.63
2023-04-11T10:00:29.770Z,3.90
2023-04-11T10:02:58.211Z,4.32
2023-04-11T10:05:28.022Z,5.13
2023-04-11T10:08:10.085Z,4.70
2023-04-11T10:10:38.458Z,5.07
2023-04-11T10:13:41.730Z,1.98
2023-04-11T10:16:12.457Z,5.18
2023-04-11T10:19:28.980Z,3.35
2023-04-11T10:21:57.558Z,2.78
2023-04-11T10:24:26.685Z,5.40
2023-04-11T10:26:56.763Z,5.72
2023-04-11T10:29:52.037Z,2.75
2023-04-11T10:32:23.549Z,2.53
2023-04-11T10:35:22.831Z,6.03
2023-04-11T10:37:52.065Z,3.05
2023-04-11T10:40:21.258Z,5.03
2023-04-11T10:42:49.690Z,7.78
2023-04-11T10:45:29.829Z,5.47
2023-04-11T10:48:07.786Z,6.13
2023-04-11T10:50:57.974Z,6.25
2023-04-11T10:53:37.484Z,6.45
2023-04-11T10:58:39.997Z,5.82
2023-04-11T11:01:31.225Z,3.38
2023-04-11T11:04:06.905Z,5.55
2023-04-11T11:06:46.267Z,4.38
2023-04-11T11:09:24.057Z,6.35
2023-04-11T11:12:10.507Z,4.60
2023-04-11T11:14:39.042Z,6.35
2023-04-11T11:17:09.044Z,10.95
2023-04-11T11:19:38.352Z,6.57
2023-04-11T11:22:17.189Z,6.82
2023-04-11T11:24:45.842Z,6.68
2023-04-11T11:27:21.381Z,7.57
2023-04-11T11:29:49.879Z,7.72
2023-04-11T11:32:26.623Z,5.32
2023-04-11T11:34:55.459Z,4.25
2023-04-11T11:37:23.536Z,6.72
2023-04-11T11:39:52.700Z,8.02
2023-04-11T11:42:20.979Z,7.60
2023-04-11T11:44:49.333Z,6.85
2023-04-11T11:47:17.762Z,10.10
2023-04-11T11:49:48.788Z,4.65
2023-04-11T11:52:33.939Z,2.60
2023-04-11T11:55:03.194Z,3.13
2023-04-11T11:57:31.562Z,5.82
2023-04-11T12:00:07.886Z,3.88
2023-04-11T12:02:37.104Z,6.85
2023-04-11T12:05:08.603Z,5.20
2023-04-11T12:07:39.187Z,5.10
2023-04-11T12:10:09.452Z,3.35
2023-04-11T12:12:41.879Z,5.75
2023-04-11T12:15:12.308Z,6.60
2023-04-11T12:17:41.489Z,7.47
2023-04-11T12:20:11.889Z,5.82
2023-04-11T12:22:40.387Z,2.85
2023-04-11T12:25:11.099Z,5.70
2023-04-11T12:27:41.118Z,5.85
2023-04-11T12:30:10.533Z,5.35
2023-04-11T12:32:39.511Z,5.88
2023-04-11T12:35:08.252Z,7.97
2023-04-11T12:37:39.242Z,3.97
2023-04-11T12:40:11.009Z,7.28
2023-04-11T12:42:53.036Z,4.82
2023-04-11T12:45:21.890Z,2.80
2023-04-11T12:47:50.448Z,4.30
2023-04-11T12:50:18.519Z,3.42
2023-04-11T12:52:48.737Z,3.17
2023-04-11T12:55:17.803Z,6.20
2023-04-11T12:57:45.870Z,2.35
2023-04-11T13:00:15.647Z,5.55
2023-04-11T13:02:45.589Z,2.97
2023-04-11T13:07:46.509Z,4.47
2023-04-11T13:10:17.291Z,3.38
2023-04-11T13:12:46.544Z,3.75
2023-04-11T13:15:16.226Z,4.25
2023-04-11T13:17:45.094Z,8.45
2023-04-11T13:20:13.726Z,4.60
2023-04-11T13:22:42.732Z,4.05
2023-04-11T13:25:12.653Z,5.63
2023-04-11T13:27:42.469Z,5.47
2023-04-11T13:30:12.359Z,6.07
2023-04-11T13:32:40.517Z,3.63
2023-04-11T13:35:10.297Z,2.83
2023-04-11T13:37:38.741Z,4.47
2023-04-11T13:40:10.815Z,4.80
2023-04-11T13:42:39.690Z,2.65
2023-04-11T13:45:10.090Z,4.45
2023-04-11T13:47:39.172Z,5.60
2023-04-11T13:50:09.716Z,3.22
2023-04-11T13:52:37.948Z,2.15
2023-04-11T13:55:06.831Z,3.90
2023-04-11T13:57:55.479Z,6.88
2023-04-11T14:00:24.937Z,2.83
2023-04-11T14:05:21.993Z,5.18
2023-04-11T14:07:50.450Z,3.53
2023-04-11T14:10:18.992Z,4.20
2023-04-11T14:12:47.103Z,2.70
2023-04-11T14:15:15.068Z,5.72
2023-04-11T14:17:47.318Z,2.40
2023-04-11T14:20:16.720Z,3.13
2023-04-11T14:22:45.095Z,3.80
2023-04-11T14:25:16.256Z,5.43
2023-04-11T14:27:46.824Z,2.13
2023-04-11T14:30:15.567Z,2.83
2023-04-11T14:32:45.883Z,3.63
2023-04-11T14:35:13.869Z,2.72
2023-04-11T14:37:42.280Z,3.17
2023-04-11T14:40:11.421Z,5.47
2023-04-11T14:42:39.672Z,1.88
2023-04-11T14:45:08.697Z,2.08
2023-04-11T14:47:38.122Z,1.73
2023-04-11T14:50:08.825Z,3.58
2023-04-11T14:52:37.731Z,3.70
2023-04-11T14:55:07.170Z,2.88
2023-04-11T14:57:46.672Z,2.80
2023-04-11T15:02:50.120Z,2.15
2023-04-11T15:05:20.882Z,1.55
2023-04-11T15:07:50.050Z,6.00
2023-04-11T15:10:19.293Z,2.88
2023-04-11T15:12:48.404Z,2.00
2023-04-11T15:15:16.764Z,2.95
2023-04-11T15:17:48.573Z,4.67
2023-04-11T15:20:17.431Z,1.65
2023-04-11T15:22:47.012Z,3.20
2023-04-11T15:25:17.134Z,2.97
2023-04-11T15:27:45.123Z,2.40
2023-04-11T15:30:13.672Z,3.53
2023-04-11T15:32:44.499Z,1.45
2023-04-11T15:35:13.322Z,2.58
2023-04-11T15:37:41.790Z,4.32
2023-04-11T15:40:12.576Z,3.80
2023-04-11T15:42:41.428Z,3.03
2023-04-11T15:45:10.563Z,1.92
2023-04-11T15:47:38.634Z,4.95
2023-04-11T15:50:07.383Z,1.23
2023-04-11T15:55:04.902Z,2.35
2023-04-11T15:57:35.140Z,1.95
2023-04-11T16:02:38.241Z,2.30
2023-04-11T16:05:07.943Z,3.22
2023-04-11T16:07:36.500Z,4.25
2023-04-11T16:10:05.181Z,3.13
2023-04-11T16:15:03.964Z,3.63
2023-04-11T16:17:33.148Z,3.13
2023-04-11T16:20:01.315Z,2.92
2023-04-11T16:22:30.605Z,5.07
2023-04-11T16:24:58.539Z,2.90
2023-04-11T16:27:26.973Z,3.17
2023-04-11T16:30:00.292Z,2.88
2023-04-11T16:32:28.721Z,3.15
2023-04-11T16:34:57.926Z,2.10
2023-04-11T16:37:26.463Z,3.15
2023-04-11T16:39:54.825Z,4.78
2023-04-11T16:42:23.877Z,2.95
2023-04-11T16:44:52.794Z,4.25
2023-04-11T16:47:26.098Z,1.25
2023-04-11T16:49:55.631Z,3.28
2023-04-11T16:52:23.683Z,2.87
2023-04-11T16:54:52.225Z,3.17
2023-04-11T16:57:20.947Z,2.65
2023-04-11T16:59:48.973Z,3.50
2023-04-11T17:02:17.190Z,2.83
2023-04-11T17:04:47.677Z,3.05
2023-04-11T17:07:17.364Z,3.15
2023-04-11T17:09:48.579Z,3.17
2023-04-11T17:12:16.651Z,4.13
2023-04-11T17:14:45.688Z,2.83
2023-04-11T17:17:14.544Z,6.18
2023-04-11T17:19:43.198Z,2.38
2023-04-11T17:22:13.908Z,3.38
2023-04-11T17:24:42.012Z,3.20
2023-04-11T17:27:09.968Z,4.28
2023-04-11T17:29:38.816Z,2.40
2023-04-11T17:32:07.217Z,4.97
2023-04-11T17:34:36.518Z,2.45
2023-04-11T17:37:04.438Z,3.03
2023-04-11T17:39:34.162Z,6.03
2023-04-11T17:42:02.553Z,4.60
2023-04-11T17:44:30.955Z,3.20
2023-04-11T17:46:58.900Z,5.35
2023-04-11T17:49:28.387Z,2.80
2023-04-11T17:51:59.029Z,3.50
2023-04-11T17:54:28.539Z,3.40
2023-04-11T17:56:58.348Z,3.30
2023-04-11T17:59:26.411Z,2.45
2023-04-11T18:01:56.364Z,3.28
2023-04-11T18:04:24.534Z,3.80
2023-04-11T18:06:52.971Z,4.72
2023-04-11T18:09:44.261Z,1.83
2023-04-11T18:12:13.581Z,4.17
2023-04-11T18:14:41.931Z,4.68
2023-04-11T18:17:11.222Z,2.88
2023-04-11T18:19:39.117Z,5.30
2023-04-11T18:22:07.479Z,1.80
2023-04-11T18:24:35.881Z,5.72
2023-04-11T18:27:03.885Z,3.53
2023-04-11T18:29:33.174Z,3.88
2023-04-11T18:32:01.995Z,5.43
2023-04-11T18:34:30.415Z,6.75
2023-04-11T18:36:58.381Z,4.70
2023-04-11T18:39:27.307Z,6.53
2023-04-11T18:41:55.557Z,4.22
2023-04-11T18:44:24.498Z,3.85
2023-04-11T18:46:56.656Z,5.60
2023-04-11T18:49:27.848Z,3.30
2023-04-11T18:52:00.047Z,4.80
2023-04-11T18:54:28.205Z,3.92
2023-04-11T18:56:57.155Z,2.90
2023-04-11T18:59:29.587Z,4.50
2023-04-11T19:01:59.492Z,4.78
2023-04-11T19:04:28.207Z,5.40
2023-04-11T19:07:01.188Z,2.33
2023-04-11T19:09:30.126Z,1.95
2023-04-11T19:11:58.008Z,3.00
2023-04-11T19:14:27.070Z,4.00
2023-04-11T19:16:55.216Z,4.63
2023-04-11T19:19:25.535Z,5.60
2023-04-11T19:21:54.123Z,6.30
2023-04-11T19:24:22.374Z,3.42
2023-04-11T19:26:50.441Z,2.83
2023-04-11T19:29:19.310Z,3.75
2023-04-11T19:31:47.355Z,3.63
2023-04-11T19:34:16.929Z,2.72
2023-04-11T19:36:46.715Z,4.70
2023-04-11T19:39:14.894Z,6.60
2023-04-11T19:41:45.678Z,3.30
2023-04-11T19:44:14.745Z,3.78
2023-04-11T19:46:43.460Z,3.97
2023-04-11T19:49:12.058Z,4.47
2023-04-11T19:51:40.754Z,7.07
2023-04-11T19:54:10.938Z,4.97
2023-04-11T19:56:40.995Z,6.00
2023-04-11T19:59:12.183Z,4.78
2023-04-11T20:01:40.560Z,3.47
2023-04-11T20:04:09.824Z,6.00
2023-04-11T20:06:38.289Z,4.13
2023-04-11T20:09:06.365Z,7.72
2023-04-11T20:11:37.126Z,3.72
2023-04-11T20:14:05.126Z,4.40
2023-04-11T20:16:33.555Z,4.82
2023-04-11T20:19:02.801Z,5.45
2023-04-11T20:21:31.681Z,5.20
2023-04-11T20:24:04.088Z,4.43
2023-04-11T20:26:32.104Z,4.50
2023-04-11T20:29:01.403Z,4.32
2023-04-11T20:31:29.980Z,4.97
2023-04-11T20:33:58.102Z,2.15
2023-04-11T20:36:27.491Z,3.83
2023-04-11T20:38:58.485Z,5.07
2023-04-11T20:41:26.525Z,7.78
2023-04-11T20:43:54.816Z,11.77
2023-04-11T20:46:25.418Z,20.67
2023-04-11T20:48:53.519Z,24.23
2023-04-11T20:51:22.005Z,15.40
2023-04-11T20:53:49.951Z,13.82
2023-04-11T20:56:18.039Z,8.02
2023-04-11T20:58:47.475Z,5.00
2023-04-11T21:01:15.536Z,6.25
2023-04-11T21:03:47.295Z,3.83
2023-04-11T21:06:15.699Z,6.10
2023-04-11T21:08:43.744Z,5.15
2023-04-11T21:11:12.183Z,2.97
2023-04-11T21:13:40.120Z,4.15
2023-04-11T21:16:10.479Z,5.72
2023-04-11T21:18:38.905Z,6.97
2023-04-11T21:21:09.427Z,3.95
2023-04-11T21:23:38.244Z,4.75
2023-04-11T21:26:06.639Z,6.00
2023-04-11T21:28:35.465Z,5.90
2023-04-11T21:31:03.667Z,4.55
2023-04-11T21:33:32.125Z,5.97
2023-04-11T21:36:00.631Z,6.82
2023-04-11T21:38:30.331Z,5.32
2023-04-11T21:40:59.335Z,6.32
2023-04-11T21:43:28.044Z,7.15
2023-04-11T21:45:56.452Z,3.05
2023-04-11T21:48:25.159Z,7.70
2023-04-11T21:50:55.735Z,5.53
2023-04-11T21:53:23.651Z,4.05
2023-04-11T21:55:55.531Z,4.75
2023-04-11T22:00:58.456Z,3.80
2023-04-11T22:03:28.979Z,2.42
2023-04-11T22:05:59.254Z,6.70
2023-04-11T22:08:29.342Z,4.68
2023-04-11T22:10:59.829Z,8.27
2023-04-11T22:13:28.233Z,4.10
2023-04-11T22:16:05.351Z,4.45
2023-04-11T22:18:39.286Z,5.78
2023-04-11T22:21:09.411Z,3.40
2023-04-11T22:23:43.267Z,7.80
2023-04-11T22:26:12.661Z,6.65
2023-04-11T22:28:42.420Z,5.68
2023-04-11T22:31:14.043Z,4.32
2023-04-11T22:33:42.048Z,4.43
2023-04-11T22:36:11.187Z,4.68
2023-04-11T22:38:39.774Z,5.95
2023-04-11T22:41:14.845Z,5.57
2023-04-11T22:43:45.376Z,3.58
2023-04-11T22:48:42.033Z,6.45
2023-04-11T22:51:10.978Z,3.28
2023-04-11T22:53:42.052Z,3.17
2023-04-11T22:56:12.163Z,3.20
2023-04-11T22:58:40.308Z,4.85
2023-04-11T23:01:14.493Z,8.85
2023-04-11T23:03:42.936Z,4.57
2023-04-11T23:06:12.862Z,4.40
2023-04-11T23:08:41.583Z,6.30
2023-04-11T23:11:09.618Z,4.45
2023-04-11T23:13:38.100Z,6.78
2023-04-11T23:16:07.064Z,6.95
2023-04-11T23:18:36.458Z,6.03
2023-04-11T23:21:06.469Z,3.92
2023-04-11T23:23:34.405Z,5.55
2023-04-11T23:26:04.575Z,5.67
2023-04-11T23:28:32.923Z,2.60
2023-04-11T23:31:01.546Z,7.00
2023-04-11T23:33:29.540Z,7.53
2023-04-11T23:35:59.825Z,5.38
2023-04-11T23:38:27.782Z,8.45
2023-04-11T23:40:57.862Z,4.32
2023-04-11T23:43:25.826Z,4.50
2023-04-11T23:45:55.037Z,5.13
2023-04-11T23:48:23.433Z,4.38
2023-04-11T23:50:51.457Z,7.05
2023-04-11T23:53:20.788Z,3.28
2023-04-11T23:55:50.389Z,5.03
2023-04-11T23:58:18.313Z,5.80
